Time;durP1;ratioP1;P1;durP2;ratioP2;P2;SDS_P1;SDS_P2;PMS_P1;PMS_P2;Temp;Humidity;BMP_temperature;BMP_pressure;BME280_temperature;BME280_humidity;BME280_pressure;Samples;Min_cycle;Max_cycle;Signal;HPM_P1;HPM_P2
2021/06/16 00:00:00;;;;;;;6.25;3.95;;;;;;;15.21;100.00;95846.88;1023484;28;20034;-68
2021/06/16 00:00:31;;;;;;;5.90;3.63;;;;;;;15.18;100.00;95842.16;1019429;29;20091;-67
2021/06/16 00:01:01;;;;;;;8.90;3.80;;;;;;;15.22;100.00;95851.09;1018950;29;20031;-68
2021/06/16 00:01:32;;;;;;;9.05;3.95;;;;;;;15.22;100.00;95846.56;1022363;29;20027;-67
2021/06/16 00:02:03;;;;;;;4.07;3.67;;;;;;;15.23;100.00;95848.16;1027513;28;20027;-67
2021/06/16 00:02:33;;;;;;;12.20;4.15;;;;;;;15.25;100.00;95853.16;1027168;28;20491;-68
2021/06/16 00:03:06;;;;;;;6.63;3.90;;;;;;;15.23;100.00;95848.16;1021310;28;20023;-68
2021/06/16 00:03:37;;;;;;;6.70;3.85;;;;;;;15.22;100.00;95845.78;1026062;28;20042;-67
2021/06/16 00:04:07;;;;;;;7.28;3.95;;;;;;;15.20;100.00;95846.09;1023823;28;20035;-67
2021/06/16 00:04:38;;;;;;;7.07;4.10;;;;;;;15.19;100.00;95847.19;1027331;28;20400;-67
2021/06/16 00:05:11;;;;;;;6.38;4.03;;;;;;;15.14;100.00;95841.97;1019496;28;20035;-67
2021/06/16 00:05:41;;;;;;;7.82;3.88;;;;;;;15.16;100.00;95846.97;1025033;28;20034;-67
2021/06/16 00:06:12;;;;;;;5.15;3.63;;;;;;;15.08;100.00;95837.81;1023459;29;20062;-68
2021/06/16 00:06:43;;;;;;;11.75;4.05;;;;;;;15.15;100.00;95842.75;1022094;28;20043;-66
2021/06/16 00:07:14;;;;;;;6.40;3.72;;;;;;;15.08;100.00;95843.09;1019237;29;20631;-67
2021/06/16 00:07:44;;;;;;;4.82;3.20;;;;;;;15.10;100.00;95846.25;1019221;29;20058;-66
2021/06/16 00:08:14;;;;;;;5.93;3.92;;;;;;;15.10;100.00;95843.63;1019135;29;20812;-68
2021/06/16 00:08:45;;;;;;;4.95;3.65;;;;;;;15.11;100.00;95831.97;1023351;28;20445;-65
2021/06/16 00:09:15;;;;;;;4.38;3.60;;;;;;;15.09;100.00;95845.47;1023311;28;20453;-68
2021/06/16 00:09:46;;;;;;;5.20;3.88;;;;;;;15.11;100.00;95837.25;1023096;29;20782;-68
2021/06/16 00:10:19;;;;;;;6.07;3.88;;;;;;;15.12;100.00;95840.66;1023477;29;20052;-66
2021/06/16 00:10:50;;;;;;;7.63;4.10;;;;;;;15.06;100.00;95839.97;1023994;28;20104;-68
2021/06/16 00:11:20;;;;;;;20.27;5.20;;;;;;;15.03;100.00;95835.28;1026977;28;20542;-67
2021/06/16 00:11:51;;;;;;;7.45;4.13;;;;;;;15.08;100.00;95845.75;1023615;28;20023;-67
2021/06/16 00:12:24;;;;;;;12.02;4.85;;;;;;;15.11;100.00;95850.47;1023409;29;20046;-67
2021/06/16 00:12:54;;;;;;;10.27;4.00;;;;;;;15.11;100.00;95850.47;1023930;28;20028;-68
2021/06/16 00:13:25;;;;;;;12.57;4.90;;;;;;;15.09;100.00;95849.97;1023352;28;20120;-65
2021/06/16 00:13:56;;;;;;;7.03;4.00;;;;;;;15.07;100.00;95852.91;1023444;28;20035;-68
2021/06/16 00:14:27;;;;;;;8.40;4.60;;;;;;;15.07;100.00;95855.53;1024515;28;20547;-68
2021/06/16 00:14:58;;;;;;;9.50;4.20;;;;;;;15.06;100.00;95851.34;1023683;28;20118;-67
2021/06/16 00:15:32;;;;;;;13.25;4.30;;;;;;;15.07;100.00;95863.47;1027457;28;20022;-68
2021/06/16 00:16:04;;;;;;;12.70;4.70;;;;;;;15.04;100.00;95844.75;1028689;28;20137;-67
2021/06/16 00:16:34;;;;;;;17.63;4.50;;;;;;;15.04;100.00;95850.81;1024178;28;20023;-67
2021/06/16 00:17:05;;;;;;;41.15;8.20;;;;;;;15.05;100.00;95855.03;1023370;29;20065;-65
2021/06/16 00:17:35;;;;;;;32.28;6.18;;;;;;;15.04;100.00;95853.47;1023165;28;20051;-68
2021/06/16 00:18:06;;;;;;;6.75;3.72;;;;;;;15.06;100.00;95850.56;1027290;28;20504;-66
2021/06/16 00:18:37;;;;;;;7.13;3.70;;;;;;;15.09;100.00;95855.28;1027729;28;20030;-68
2021/06/16 00:19:07;;;;;;;9.80;4.07;;;;;;;15.04;100.00;95842.13;1033562;28;20037;-68
2021/06/16 00:19:38;;;;;;;11.35;4.70;;;;;;;15.06;100.00;95855.84;1031011;28;20411;-67
2021/06/16 00:20:09;;;;;;;7.68;4.10;;;;;;;15.12;100.00;95859.16;1031373;28;20125;-69
2021/06/16 00:20:40;;;;;;;19.70;4.70;;;;;;;15.07;100.00;95847.63;1031421;28;20172;-67
2021/06/16 00:21:13;;;;;;;26.23;5.70;;;;;;;15.12;100.00;95857.31;1026139;28;20027;-67
2021/06/16 00:21:44;;;;;;;8.60;4.88;;;;;;;15.15;100.00;95854.09;1027171;28;20034;-68
2021/06/16 00:22:14;;;;;;;13.93;4.72;;;;;;;15.18;100.00;95853.53;1023129;29;20038;-68
2021/06/16 00:22:45;;;;;;;11.13;5.53;;;;;;;15.18;100.00;95856.16;1024013;28;20035;-66
2021/06/16 00:23:15;;;;;;;13.30;5.10;;;;;;;15.13;100.00;95840.41;1031330;28;20045;-68
2021/06/16 00:23:46;;;;;;;9.15;5.45;;;;;;;15.10;100.00;95846.25;1031201;28;20026;-66
2021/06/16 00:24:19;;;;;;;14.90;4.85;;;;;;;15.15;100.00;95858.59;1027088;28;20058;-68
2021/06/16 00:24:50;;;;;;;10.55;4.70;;;;;;;15.16;100.00;95855.69;1027777;28;20026;-67
2021/06/16 00:25:20;;;;;;;9.18;4.80;;;;;;;15.13;100.00;95848.31;1031459;28;20038;-67
2021/06/16 00:25:51;;;;;;;8.43;5.30;;;;;;;15.23;100.00;95850.81;1023541;28;20027;-68
2021/06/16 00:26:21;;;;;;;6.15;4.82;;;;;;;15.26;100.00;95844.94;1020070;29;20028;-68
2021/06/16 00:26:52;;;;;;;7.18;4.93;;;;;;;15.30;100.00;95845.94;1015309;29;20036;-67
2021/06/16 00:27:22;;;;;;;7.70;5.40;;;;;;;15.38;100.00;95854.28;1015903;28;20130;-68
2021/06/16 00:27:53;;;;;;;14.15;6.75;;;;;;;15.36;100.00;95859.06;1024231;28;20031;-68
2021/06/16 00:28:23;;;;;;;6.15;4.80;;;;;;;15.34;100.00;95851.41;1027338;28;20050;-68
2021/06/16 00:28:54;;;;;;;6.80;4.82;;;;;;;15.40;100.00;95854.78;1031320;28;20034;-67
2021/06/16 00:29:24;;;;;;;6.30;4.97;;;;;;;15.45;100.00;95854.69;1031332;28;20030;-67
2021/06/16 00:29:55;;;;;;;7.95;5.20;;;;;;;15.50;100.00;95855.38;1030978;28;20030;-68
2021/06/16 00:30:25;;;;;;;9.45;5.18;;;;;;;15.50;100.00;95855.38;1027105;28;20043;-67
2021/06/16 00:30:56;;;;;;;7.68;5.00;;;;;;;15.54;100.00;95851.06;1023020;29;20031;-64
2021/06/16 00:31:29;;;;;;;10.70;5.50;;;;;;;15.57;100.00;95849.72;1018420;29;20030;-67
2021/06/16 00:32:00;;;;;;;8.55;5.00;;;;;;;15.58;100.00;95851.28;1015872;29;20032;-67
2021/06/16 00:32:30;;;;;;;8.43;5.35;;;;;;;15.62;100.00;95846.19;1023413;28;20476;-69
2021/06/16 00:33:01;;;;;;;9.07;5.05;;;;;;;15.65;100.00;95838.44;1022771;28;20023;-68
2021/06/16 00:33:31;;;;;;;8.70;5.45;;;;;;;15.70;100.00;95848.22;1023328;29;20531;-68
2021/06/16 00:34:01;;;;;;;7.60;4.95;;;;;;;15.71;100.00;95845.25;1023321;29;20035;-68
2021/06/16 00:34:32;;;;;;;12.85;5.18;;;;;;;15.70;100.00;95849.00;1022576;28;20027;-65
2021/06/16 00:35:03;;;;;;;11.55;4.68;;;;;;;15.65;100.00;95841.09;1027541;28;20023;-68
2021/06/16 00:35:33;;;;;;;19.17;5.38;;;;;;;15.66;100.00;95849.81;1027182;28;20027;-69
2021/06/16 00:36:09;;;;;;;32.50;7.78;;;;;;;15.63;100.00;95853.84;1024141;28;20031;-66
2021/06/16 00:36:45;;;;;;;20.55;6.78;;;;;;;15.42;100.00;95823.53;1026803;28;20480;-68
2021/06/16 00:37:16;;;;;;;23.58;6.50;;;;;;;15.55;100.00;95847.34;1024780;28;20070;-68
2021/06/16 00:37:47;;;;;;;19.52;7.35;;;;;;;15.51;100.00;95843.72;1023193;29;20669;-68
2021/06/16 00:38:17;;;;;;;11.95;5.53;;;;;;;15.52;100.00;95842.63;1018822;29;20048;-68
2021/06/16 00:38:48;;;;;;;12.63;5.57;;;;;;;15.50;100.00;95844.03;1023025;29;20023;-67
2021/06/16 00:39:18;;;;;;;9.30;5.13;;;;;;;15.47;100.00;95834.03;1021940;29;20039;-68
2021/06/16 00:39:49;;;;;;;6.25;4.72;;;;;;;15.52;100.00;95847.94;1020510;29;20062;-68
2021/06/16 00:40:23;;;;;;;9.68;5.47;;;;;;;15.51;100.00;95846.38;1023163;29;20031;-68
2021/06/16 00:40:57;;;;;;;7.55;4.82;;;;;;;15.55;100.00;95846.56;1019402;29;20028;-67
2021/06/16 00:41:27;;;;;;;12.10;4.57;;;;;;;15.59;100.00;95842.25;1020864;28;20044;-68
2021/06/16 00:41:58;;;;;;;7.10;5.00;;;;;;;15.61;100.00;95844.63;1019208;29;20035;-68
2021/06/16 00:42:28;;;;;;;8.73;4.82;;;;;;;15.65;100.00;95843.75;1023361;29;20110;-68
2021/06/16 00:43:00;;;;;;;9.88;4.72;;;;;;;15.69;100.00;95843.97;1021680;29;20393;-67
2021/06/16 00:43:31;;;;;;;9.90;4.53;;;;;;;15.71;100.00;95850.53;1023666;28;20019;-68
2021/06/16 00:44:01;;;;;;;7.88;4.78;;;;;;;15.63;100.00;95837.97;1035187;28;20026;-68
2021/06/16 00:44:32;;;;;;;8.43;4.90;;;;;;;15.71;100.00;95841.84;1027101;28;20022;-68
2021/06/16 00:45:07;;;;;;;7.45;4.90;;;;;;;15.72;100.00;95846.03;1028383;28;20054;-68
2021/06/16 00:45:38;;;;;;;8.38;5.07;;;;;;;15.66;100.00;95837.44;1023161;29;20106;-68
2021/06/16 00:46:08;;;;;;;7.53;4.70;;;;;;;15.71;100.00;95853.19;1024017;28;20062;-68
2021/06/16 00:46:38;;;;;;;5.75;4.55;;;;;;;15.68;100.00;95851.13;1021431;28;20032;-67
2021/06/16 00:47:09;;;;;;;7.88;5.15;;;;;;;15.65;100.00;95850.91;1023169;28;20027;-69
2021/06/16 00:47:39;;;;;;;8.85;5.03;;;;;;;15.60;100.00;95848.34;1026798;28;20031;-68
2021/06/16 00:48:10;;;;;;;8.05;5.15;;;;;;;15.59;100.00;95850.19;1023147;28;20019;-68
2021/06/16 00:48:41;;;;;;;9.73;5.30;;;;;;;15.55;100.00;95850.00;1027348;28;20110;-67
2021/06/16 00:49:11;;;;;;;10.23;5.13;;;;;;;15.52;100.00;95852.44;1030787;28;20030;-66
2021/06/16 00:49:41;;;;;;;10.43;5.20;;;;;;;15.50;100.00;95847.44;1031383;28;20026;-67
2021/06/16 00:50:12;;;;;;;10.95;5.53;;;;;;;15.48;100.00;95843.53;1039200;28;20029;-67
2021/06/16 00:50:43;;;;;;;7.75;5.50;;;;;;;15.39;100.00;95843.41;1035254;28;20412;-68
2021/06/16 00:51:13;;;;;;;5.28;4.60;;;;;;;15.35;100.00;95837.13;1030261;28;20035;-68
2021/06/16 00:51:43;;;;;;;12.07;5.80;;;;;;;15.43;100.00;95847.03;1026981;28;20779;-68
2021/06/16 00:52:14;;;;;;;8.90;5.40;;;;;;;15.41;100.00;95851.84;1023170;28;20370;-69
2021/06/16 00:52:44;;;;;;;8.65;5.22;;;;;;;15.39;100.00;95854.00;1027092;28;20061;-67
2021/06/16 00:53:15;;;;;;;6.20;4.85;;;;;;;15.37;100.00;95855.34;1027021;28;20031;-68
2021/06/16 00:53:46;;;;;;;6.53;4.63;;;;;;;15.33;100.00;95850.66;1031160;28;20018;-68
2021/06/16 00:54:16;;;;;;;7.88;4.80;;;;;;;15.35;100.00;95852.19;1031329;28;20026;-68
2021/06/16 00:54:46;;;;;;;8.82;5.00;;;;;;;15.33;100.00;95858.56;1027029;28;20083;-67
2021/06/16 00:55:17;;;;;;;10.30;5.10;;;;;;;15.32;100.00;95853.56;1025931;28;20014;-68
2021/06/16 00:55:50;;;;;;;7.90;5.20;;;;;;;15.30;100.00;95851.22;1027285;28;20026;-67
2021/06/16 00:56:24;;;;;;;7.07;5.05;;;;;;;15.24;100.00;95846.31;1030970;28;20089;-68
2021/06/16 00:56:54;;;;;;;9.15;4.95;;;;;;;15.23;100.00;95847.38;1030213;28;20023;-68
2021/06/16 00:57:25;;;;;;;8.30;5.10;;;;;;;15.24;100.00;95849.72;1031060;28;20066;-65
2021/06/16 00:57:55;;;;;;;8.38;4.85;;;;;;;15.22;100.00;95843.94;1022992;29;20015;-68
2021/06/16 00:58:26;;;;;;;9.75;4.93;;;;;;;15.23;100.00;95850.03;1023120;29;20420;-68
2021/06/16 00:58:59;;;;;;;6.13;4.45;;;;;;;15.22;100.00;95849.22;1019707;29;20036;-68
2021/06/16 00:59:32;;;;;;;7.38;4.60;;;;;;;15.22;100.00;95846.56;1026542;28;20014;-68
2021/06/16 01:00:02;;;;;;;8.55;4.60;;;;;;;15.25;100.00;95855.78;1022731;29;20026;-68
2021/06/16 01:01:13;;;;;;;7.85;4.75;;;;;;;15.24;100.00;95852.38;1023192;29;20098;-68
2021/06/16 01:01:45;;;;;;;9.73;4.90;;;;;;;15.35;100.00;95857.50;1009723;29;20035;-68
2021/06/16 01:02:16;;;;;;;9.68;4.68;;;;;;;15.41;100.00;95856.34;1023664;28;20046;-68
2021/06/16 01:02:54;;;;;;;7.82;4.57;;;;;;;15.39;100.00;95854.00;1026808;28;20564;-68
2021/06/16 01:03:29;;;;;;;7.85;4.68;;;;;;;15.38;100.00;95847.13;1020517;29;20143;-68
2021/06/16 01:04:23;;;;;;;9.68;5.00;;;;;;;15.38;100.00;95847.13;1019133;29;20633;-68
2021/06/16 01:04:54;;;;;;;9.77;5.30;;;;;;;15.35;100.00;95841.63;1025868;28;20046;-68
2021/06/16 01:05:27;;;;;;;6.75;4.90;;;;;;;15.41;100.00;95848.41;1023029;29;20023;-68
2021/06/16 01:06:01;;;;;;;11.13;5.15;;;;;;;15.39;100.00;95848.72;1023016;29;20023;-68
2021/06/16 01:06:41;;;;;;;11.60;5.28;;;;;;;15.39;100.00;95842.59;1022889;29;20023;-68
2021/06/16 01:07:12;;;;;;;8.50;4.80;;;;;;;15.42;100.00;95852.59;1026031;28;20086;-69
2021/06/16 01:07:42;;;;;;;10.90;4.95;;;;;;;15.33;100.00;95842.72;1030977;28;20018;-69
2021/06/16 01:08:20;;;;;;;7.05;4.72;;;;;;;15.40;100.00;95849.50;1022812;29;20047;-68
2021/06/16 01:09:11;;;;;;;7.25;4.97;;;;;;;15.44;100.00;95850.47;1026908;28;20432;-69
2021/06/16 01:09:45;;;;;;;;;;;;;;;15.47;100.00;95844.59;1027478;28;20441;-68
2021/06/16 01:10:16;;;;;;;8.40;5.18;;;;;;;15.47;100.00;95848.03;1031128;28;19905;-68
2021/06/16 01:10:47;;;;;;;8.05;5.13;;;;;;;15.46;100.00;95850.94;1030606;28;20106;-68
2021/06/16 01:11:17;;;;;;;12.05;4.85;;;;;;;15.48;100.00;95852.22;1026561;28;20034;-68
2021/06/16 01:12:09;;;;;;;8.20;4.45;;;;;;;15.44;100.00;95839.91;1027115;28;20042;-69
2021/06/16 01:12:43;;;;;;;7.88;4.88;;;;;;;15.46;100.00;95843.81;1026731;28;20054;-68
2021/06/16 01:13:54;;;;;;;6.68;5.35;;;;;;;15.45;100.00;95847.53;1026445;28;20022;-68
2021/06/16 01:14:51;;;;;;;9.65;5.18;;;;;;;15.39;100.00;95845.25;1018473;29;20440;-67
2021/06/16 01:15:23;;;;;;;18.38;6.13;;;;;;;15.36;100.00;95837.91;1027867;28;20039;-68
2021/06/16 01:16:11;;;;;;;16.45;5.40;;;;;;;15.35;100.00;95846.91;1030444;28;20034;-68
2021/06/16 01:16:41;;;;;;;15.20;5.20;;;;;;;15.32;100.00;95845.63;1030996;28;20023;-68
2021/06/16 01:17:12;;;;;;;11.93;5.60;;;;;;;15.33;100.00;95845.34;1031142;28;20631;-68
2021/06/16 01:17:49;;;;;;;10.77;4.78;;;;;;;15.30;100.00;95840.63;1028502;28;20054;-68
2021/06/16 01:18:23;;;;;;;8.85;4.90;;;;;;;15.31;100.00;95841.44;1024146;28;20730;-64
2021/06/16 01:19:02;;;;;;;10.40;5.72;;;;;;;15.30;100.00;95839.88;1027433;28;20086;-69
2021/06/16 01:19:51;;;;;;;10.32;6.15;;;;;;;15.31;100.00;95842.19;1027096;28;20018;-68
2021/06/16 01:20:29;;;;;;;15.75;5.05;;;;;;;15.29;100.00;95838.28;1019131;28;20032;-67
2021/06/16 01:20:59;;;;;;;10.27;4.85;;;;;;;15.28;100.00;95845.41;1030760;28;20066;-67
2021/06/16 01:21:30;;;;;;;9.40;5.25;;;;;;;15.19;100.00;95831.31;1025341;28;20156;-68
2021/06/16 01:22:03;;;;;;;12.60;5.75;;;;;;;15.22;100.00;95836.00;1023980;28;20031;-68
2021/06/16 01:22:50;;;;;;;6.65;5.15;;;;;;;15.29;100.00;95847.00;1016843;29;20078;-68
2021/06/16 01:23:43;;;;;;;9.57;4.82;;;;;;;15.33;100.00;95842.72;1021599;29;20098;-68
2021/06/16 01:24:17;;;;;;;11.70;5.22;;;;;;;15.30;100.00;95839.88;1026379;28;20136;-68
2021/06/16 01:24:50;;;;;;;8.63;4.85;;;;;;;15.29;100.00;95843.56;1026956;28;20203;-64
2021/06/16 01:25:38;;;;;;;12.65;5.88;;;;;;;15.28;100.00;95839.34;1025869;28;20034;-68
2021/06/16 01:26:17;;;;;;;;;;;;;;;15.25;100.00;95843.34;1025435;28;20535;-68
2021/06/16 01:26:51;;;;;;;7.72;5.22;;;;;;;15.24;100.00;95847.09;1024311;28;19910;-68
2021/06/16 01:27:21;;;;;;;7.68;4.82;;;;;;;15.26;100.00;95844.94;1030922;28;20114;-68
2021/06/16 01:27:52;;;;;;;7.85;5.47;;;;;;;15.31;100.00;95846.72;1026930;28;20099;-68
2021/06/16 01:28:22;;;;;;;8.30;5.28;;;;;;;15.32;100.00;95846.44;1027061;28;20035;-68
2021/06/16 01:29:00;;;;;;;7.95;5.40;;;;;;;15.32;100.00;95840.34;1022799;28;20053;-69
2021/06/16 01:29:36;;;;;;;8.52;5.30;;;;;;;15.33;100.00;95845.34;1026146;28;20030;-68
2021/06/16 01:30:10;;;;;;;8.82;5.65;;;;;;;15.36;100.00;95846.63;1022909;29;20027;-68
2021/06/16 01:30:41;;;;;;;9.82;5.15;;;;;;;15.42;100.00;95844.69;1025067;28;20110;-67
2021/06/16 01:31:13;;;;;;;6.90;5.55;;;;;;;15.40;100.00;95844.19;1018103;29;20027;-67
2021/06/16 01:31:44;;;;;;;13.02;5.90;;;;;;;15.39;100.00;95839.97;1023101;28;20027;-68
2021/06/16 01:32:14;;;;;;;9.82;5.47;;;;;;;15.41;100.00;95843.13;1023161;29;20164;-68
2021/06/16 01:32:48;;;;;;;8.20;5.50;;;;;;;15.35;100.00;95831.06;1021792;29;20028;-67
2021/06/16 01:33:18;;;;;;;8.63;5.45;;;;;;;15.33;100.00;95829.50;1023096;29;20031;-68
2021/06/16 01:33:49;;;;;;;8.50;5.80;;;;;;;15.42;100.00;95844.69;1026734;28;20081;-68
2021/06/16 01:34:21;;;;;;;10.85;5.85;;;;;;;15.40;100.00;95844.97;1026923;28;20171;-68
2021/06/16 01:34:51;;;;;;;13.23;5.93;;;;;;;15.34;100.00;95830.28;1027169;28;20038;-69
2021/06/16 01:35:23;;;;;;;9.77;5.90;;;;;;;15.32;100.00;95835.88;1027242;28;20030;-69
2021/06/16 01:35:55;;;;;;;7.95;5.45;;;;;;;15.43;100.00;95843.63;1031022;28;20034;-68
2021/06/16 01:36:26;;;;;;;13.02;6.03;;;;;;;15.43;100.00;95844.41;1022974;29;20023;-67
2021/06/16 01:36:57;;;;;;;7.13;5.90;;;;;;;15.44;100.00;95839.91;1018803;29;20024;-68
2021/06/16 01:37:30;;;;;;;13.57;5.50;;;;;;;15.47;100.00;95840.09;1023046;29;20031;-67
2021/06/16 01:38:01;;;;;;;7.32;4.88;;;;;;;15.47;100.00;95834.81;1030991;28;20399;-68
2021/06/16 01:38:31;;;;;;;9.63;5.40;;;;;;;15.44;100.00;95837.25;1026790;28;20026;-68
2021/06/16 01:39:05;;;;;;;7.25;5.60;;;;;;;15.50;100.00;95839.50;1018978;29;20776;-68
2021/06/16 01:39:36;;;;;;;10.68;5.72;;;;;;;15.46;100.00;95827.97;1022966;29;20077;-69
2021/06/16 01:40:11;;;;;;;7.80;5.18;;;;;;;15.50;100.00;95839.50;1022969;29;20023;-67
2021/06/16 01:40:42;;;;;;;15.15;5.55;;;;;;;15.50;100.00;95839.50;1015262;29;20024;-68
2021/06/16 01:41:12;;;;;;;9.98;5.57;;;;;;;15.41;100.00;95829.91;1019378;29;20038;-68
2021/06/16 01:41:46;;;;;;;8.27;5.47;;;;;;;15.50;100.00;95839.50;1026979;28;20033;-68
2021/06/16 01:42:19;;;;;;;12.52;5.78;;;;;;;15.52;100.00;95841.84;1021416;29;20393;-69
2021/06/16 01:42:50;;;;;;;10.80;5.57;;;;;;;15.52;100.00;95841.84;1022890;29;20058;-68
2021/06/16 01:43:21;;;;;;;7.85;5.43;;;;;;;15.56;100.00;95840.22;1026037;28;20030;-69
2021/06/16 01:43:53;;;;;;;7.57;5.47;;;;;;;15.57;100.00;95844.44;1024274;28;20108;-68
2021/06/16 01:44:24;;;;;;;7.32;5.55;;;;;;;15.54;100.00;95832.56;1024341;28;20027;-68
2021/06/16 01:44:57;;;;;;;10.05;5.47;;;;;;;15.55;100.00;95841.28;1026930;28;20046;-68
2021/06/16 01:45:29;;;;;;;9.57;5.60;;;;;;;15.49;100.00;95832.66;1022591;29;20854;-67
2021/06/16 01:46:02;;;;;;;10.18;5.50;;;;;;;15.45;100.00;95830.88;1022765;29;20314;-68
2021/06/16 01:46:33;;;;;;;11.55;5.65;;;;;;;15.51;100.00;95841.06;1027951;28;20579;-67
2021/06/16 01:47:04;;;;;;;7.25;5.28;;;;;;;15.52;100.00;95842.63;1022752;29;20028;-67
2021/06/16 01:47:34;;;;;;;10.10;5.20;;;;;;;15.47;100.00;95834.03;1018950;29;20115;-68
2021/06/16 01:48:07;;;;;;;6.72;5.13;;;;;;;15.54;100.00;95845.78;1023084;28;20545;-66
2021/06/16 01:48:40;;;;;;;8.25;5.38;;;;;;;15.50;100.00;95833.44;1026644;28;20468;-67
2021/06/16 01:49:13;;;;;;;8.05;5.13;;;;;;;15.52;100.00;95839.22;1022568;29;20019;-68
2021/06/16 01:49:43;;;;;;;10.32;4.82;;;;;;;15.53;100.00;95846.09;1023468;28;20053;-68
2021/06/16 01:50:15;;;;;;;8.52;5.25;;;;;;;15.51;100.00;95841.06;1030726;28;20045;-68
2021/06/16 01:50:47;;;;;;;8.63;4.97;;;;;;;15.53;100.00;95851.38;1026521;28;20081;-68
2021/06/16 01:51:17;;;;;;;8.93;4.95;;;;;;;15.54;100.00;95840.50;1021841;29;20490;-68
2021/06/16 01:51:48;;;;;;;8.80;5.30;;;;;;;15.52;100.00;95840.00;1018755;29;20941;-69
2021/06/16 01:52:18;;;;;;;10.60;5.32;;;;;;;15.55;100.00;95847.34;1022760;29;20027;-67
2021/06/16 01:52:51;;;;;;;6.30;4.80;;;;;;;15.51;100.00;95829.72;1018685;29;20083;-68
2021/06/16 01:53:21;;;;;;;8.55;5.15;;;;;;;15.55;100.00;95843.94;1023034;29;20055;-67
2021/06/16 01:53:52;;;;;;;9.18;5.72;;;;;;;15.51;100.00;95840.28;1026562;28;20114;-68
2021/06/16 01:54:24;;;;;;;10.20;5.18;;;;;;;15.46;100.00;95835.09;1026734;28;20732;-67
2021/06/16 01:54:57;;;;;;;8.02;4.78;;;;;;;15.51;100.00;95835.00;1019069;29;20090;-67
2021/06/16 01:55:28;;;;;;;7.53;4.78;;;;;;;15.56;100.00;95842.88;1023063;29;20110;-67
2021/06/16 01:55:58;;;;;;;10.98;5.00;;;;;;;15.55;100.00;95841.28;1018880;29;20023;-68
2021/06/16 01:56:28;;;;;;;7.78;5.22;;;;;;;15.51;100.00;95841.06;1030357;28;20030;-68
2021/06/16 01:56:59;;;;;;;10.10;5.13;;;;;;;15.53;100.00;95840.81;1026885;28;20507;-68
2021/06/16 01:57:29;;;;;;;10.65;5.25;;;;;;;15.48;100.00;95835.59;1020585;29;20122;-68
2021/06/16 01:58:01;;;;;;;12.68;5.25;;;;;;;15.51;100.00;95835.00;1022418;28;20051;-68
2021/06/16 01:58:32;;;;;;;9.38;4.50;;;;;;;15.52;100.00;95839.22;1022301;29;20026;-68
2021/06/16 01:59:03;;;;;;;10.23;5.07;;;;;;;15.53;100.00;95840.81;1021894;29;20379;-68
2021/06/16 01:59:33;;;;;;;11.27;4.95;;;;;;;15.50;100.00;95836.88;1022952;29;20031;-68
2021/06/16 02:00:04;;;;;;;12.48;5.40;;;;;;;15.50;100.00;95844.81;1022879;29;20038;-68
2021/06/16 02:00:36;;;;;;;8.35;5.45;;;;;;;15.49;100.00;95845.09;1019477;28;20066;-67
2021/06/16 02:01:07;;;;;;;9.23;5.05;;;;;;;15.46;100.00;95838.53;1026213;28;20496;-65
2021/06/16 02:01:37;;;;;;;10.93;4.93;;;;;;;15.41;100.00;95835.19;1030991;28;20030;-67
2021/06/16 02:02:08;;;;;;;14.52;5.75;;;;;;;15.38;100.00;95838.41;1030799;28;20101;-68
2021/06/16 02:02:38;;;;;;;15.02;5.82;;;;;;;15.39;100.00;95842.59;1026374;28;20086;-67
2021/06/16 02:03:09;;;;;;;15.45;5.50;;;;;;;15.41;100.00;95845.75;1023569;29;20715;-68
2021/06/16 02:03:42;;;;;;;10.32;5.07;;;;;;;15.40;100.00;95841.56;1019251;29;20482;-68
2021/06/16 02:04:12;;;;;;;8.95;5.18;;;;;;;15.39;100.00;95845.25;1019053;29;20123;-68
2021/06/16 02:04:43;;;;;;;10.73;5.32;;;;;;;15.38;100.00;95844.47;1018971;29;20079;-69
2021/06/16 02:05:17;;;;;;;7.78;5.20;;;;;;;15.41;100.00;95841.25;1019046;29;20199;-69
2021/06/16 02:05:48;;;;;;;9.05;5.50;;;;;;;15.39;100.00;95837.31;1022794;29;20155;-67
2021/06/16 02:06:19;;;;;;;8.15;5.35;;;;;;;15.40;100.00;95834.41;1019887;29;20047;-69
2021/06/16 02:07:05;;;;;;;6.40;4.90;;;;;;;15.43;100.00;95839.13;1015132;29;20032;-68
2021/06/16 02:07:40;;;;;;;8.50;5.88;;;;;;;15.46;100.00;95835.91;1026841;28;20034;-68
2021/06/16 02:08:15;;;;;;;6.88;4.78;;;;;;;15.43;100.00;95833.03;1026699;28;20023;-69
2021/06/16 02:08:46;;;;;;;7.78;5.63;;;;;;;15.41;100.00;95835.19;1029871;28;20105;-67
2021/06/16 02:09:16;;;;;;;9.98;5.47;;;;;;;15.39;100.00;95838.13;1017823;29;20024;-68
2021/06/16 02:09:48;;;;;;;9.20;5.28;;;;;;;15.36;100.00;95832.59;1018163;29;20047;-68
2021/06/16 02:10:19;;;;;;;8.13;6.13;;;;;;;15.30;100.00;95835.34;1022864;29;20023;-68
2021/06/16 02:10:50;;;;;;;7.65;5.50;;;;;;;15.25;100.00;95827.50;1024898;28;20118;-69
2021/06/16 02:11:22;;;;;;;9.85;5.43;;;;;;;15.28;100.00;95837.50;1026747;28;20035;-68
2021/06/16 02:11:52;;;;;;;10.65;5.72;;;;;;;15.25;100.00;95826.72;1023304;28;20035;-68
2021/06/16 02:12:23;;;;;;;8.43;5.72;;;;;;;15.25;100.00;95835.44;1023019;29;20031;-68
2021/06/16 02:12:54;;;;;;;8.77;5.25;;;;;;;15.24;100.00;95836.50;1015869;29;20016;-68
2021/06/16 02:13:30;;;;;;;7.25;5.20;;;;;;;15.18;100.00;95816.50;1015905;29;20027;-68
2021/06/16 02:14:01;;;;;;;9.23;5.65;;;;;;;15.16;100.00;95821.31;1015419;29;20119;-68
2021/06/16 02:14:31;;;;;;;10.70;5.75;;;;;;;15.15;100.00;95817.09;1018966;29;20027;-68
2021/06/16 02:15:06;;;;;;;15.52;6.72;;;;;;;15.19;100.00;95828.69;1023326;29;20034;-67
2021/06/16 02:15:46;;;;;;;16.90;5.78;;;;;;;15.12;100.00;95822.16;1029822;28;20026;-69
2021/06/16 02:16:26;;;;;;;9.85;5.63;;;;;;;15.16;100.00;95828.47;1027014;28;20107;-68
2021/06/16 02:17:01;;;;;;;8.18;6.15;;;;;;;15.14;100.00;95831.38;1030140;28;20029;-68
2021/06/16 02:17:32;;;;;;;10.25;5.75;;;;;;;15.14;100.00;95830.59;1023027;29;20023;-69
2021/06/16 02:18:03;;;;;;;8.23;5.50;;;;;;;15.10;100.00;95825.13;1019343;29;20055;-68
2021/06/16 02:18:45;;;;;;;10.10;5.82;;;;;;;15.14;100.00;95827.97;1018844;29;20663;-68
2021/06/16 02:19:20;;;;;;;8.05;5.70;;;;;;;15.14;100.00;95830.59;1026544;28;20110;-67
2021/06/16 02:19:51;;;;;;;7.45;5.53;;;;;;;15.15;100.00;95830.31;1029197;28;20022;-69
2021/06/16 02:20:24;;;;;;;8.35;5.80;;;;;;;15.15;100.00;95827.66;1022892;28;20024;-68
2021/06/16 02:20:54;;;;;;;6.63;5.68;;;;;;;15.15;100.00;95827.66;1026759;28;20027;-68
2021/06/16 02:21:25;;;;;;;9.18;5.97;;;;;;;15.14;100.00;95828.75;1030202;28;20029;-69
2021/06/16 02:21:56;;;;;;;17.17;6.03;;;;;;;15.09;100.00;95821.69;1019808;28;20020;-68
2021/06/16 02:22:27;;;;;;;9.43;5.50;;;;;;;15.12;100.00;95828.25;1027366;28;20024;-68
2021/06/16 02:22:57;;;;;;;8.90;6.05;;;;;;;15.08;100.00;95819.31;1026504;28;20062;-66
2021/06/16 02:23:28;;;;;;;12.48;6.68;;;;;;;15.07;100.00;95821.19;1030831;28;20105;-68
2021/06/16 02:23:59;;;;;;;8.00;5.78;;;;;;;15.10;100.00;95827.75;1030355;28;20076;-68
2021/06/16 02:24:29;;;;;;;11.45;5.63;;;;;;;15.06;100.00;95821.50;1030898;28;20100;-67
2021/06/16 02:24:59;;;;;;;8.15;5.80;;;;;;;15.04;100.00;95820.97;1030784;28;20741;-68
2021/06/16 02:25:30;;;;;;;10.05;5.88;;;;;;;15.04;100.00;95824.41;1022895;29;20081;-68
2021/06/16 02:26:00;;;;;;;9.35;5.43;;;;;;;15.03;100.00;95827.34;1026619;28;20116;-68
2021/06/16 02:26:31;;;;;;;6.00;5.35;;;;;;;15.02;100.00;95823.13;1030895;28;20030;-68
2021/06/16 02:27:01;;;;;;;14.18;6.07;;;;;;;15.01;100.00;95829.47;1034793;28;20085;-68
2021/06/16 02:27:32;;;;;;;9.88;6.28;;;;;;;15.04;100.00;95820.97;1034752;28;20018;-69
2021/06/16 02:28:03;;;;;;;10.07;5.70;;;;;;;15.05;100.00;95822.53;1030920;28;20134;-68
2021/06/16 02:28:33;;;;;;;11.85;5.97;;;;;;;15.05;100.00;95822.53;1030639;28;20105;-69
2021/06/16 02:29:08;;;;;;;6.88;5.22;;;;;;;15.03;100.00;95822.06;1032985;28;20051;-67
2021/06/16 02:29:39;;;;;;;6.88;5.50;;;;;;;15.03;100.00;95825.47;1031517;28;20057;-68
2021/06/16 02:30:09;;;;;;;7.85;5.80;;;;;;;15.05;100.00;95822.53;1034827;28;20649;-68
2021/06/16 02:30:40;;;;;;;8.77;6.03;;;;;;;15.03;100.00;95825.47;1026412;28;20030;-67